Time;durP1;ratioP1;P1;durP2;ratioP2;P2;SDS_P1;SDS_P2;PMS_P1;PMS_P2;Temp;Humidity;BMP_temperature;BMP_pressure;BME280_temperature;BME280_humidity;BME280_pressure;Samples;Min_cycle;Max_cycle;Signal;HPM_P1;HPM_P2
2023/03/02 00:01:29;;;;;;;20.30;9.88;;;;;;;9.95;51.33;102329.81;5101404;28;20048;-51
2023/03/02 00:07:36;;;;;;;21.10;9.30;;;;;;;9.33;54.51;102326.03;5105136;28;20046;-51
2023/03/02 00:10:02;;;;;;;21.30;11.38;;;;;;;9.40;55.24;102327.16;5098798;28;20039;-49
2023/03/02 00:12:30;;;;;;;24.67;11.15;;;;;;;9.41;55.56;102326.16;5100528;28;20056;-53
2023/03/02 00:14:55;;;;;;;28.65;11.90;;;;;;;9.49;55.91;102321.88;5098821;28;20052;-50
2023/03/02 00:17:26;;;;;;;31.15;11.50;;;;;;;9.42;56.86;102338.50;5097950;28;20088;-47
2023/03/02 00:19:53;;;;;;;27.05;12.50;;;;;;;9.44;57.74;102338.34;5080708;28;20065;-50
2023/03/02 00:22:19;;;;;;;28.30;12.40;;;;;;;9.53;57.52;102326.78;5098136;28;20058;-51
2023/03/02 00:24:44;;;;;;;30.63;13.27;;;;;;;9.46;58.48;102326.53;5101630;28;20507;-53
2023/03/02 00:27:10;;;;;;;27.43;12.67;;;;;;;9.41;59.96;102333.31;5098226;28;20043;-49
2023/03/02 00:29:35;;;;;;;32.90;14.57;;;;;;;9.23;61.83;102326.13;5100460;28;20047;-51
2023/03/02 00:32:02;;;;;;;32.47;14.10;;;;;;;9.29;62.10;102325.53;5083874;28;20052;-48
2023/03/02 00:34:31;;;;;;;33.63;14.70;;;;;;;9.28;63.20;102321.19;5081725;28;20566;-49
2023/03/02 00:36:57;;;;;;;38.95;15.90;;;;;;;9.27;64.76;102322.16;5101881;28;20048;-50
2023/03/02 00:39:23;;;;;;;37.17;16.30;;;;;;;9.26;65.57;102315.16;5094720;28;20039;-49
2023/03/02 00:41:49;;;;;;;39.23;16.53;;;;;;;9.24;66.49;102318.94;5094793;28;20032;-48
2023/03/02 00:44:18;;;;;;;36.35;16.20;;;;;;;9.44;66.28;102314.31;5097943;28;20024;-48
2023/03/02 00:46:44;;;;;;;46.30;19.30;;;;;;;9.29;67.93;102320.19;5101118;28;20029;-48
2023/03/02 00:49:11;;;;;;;38.53;16.57;;;;;;;9.20;68.91;102320.25;5077483;28;20052;-47
2023/03/02 00:51:36;;;;;;;39.42;16.67;;;;;;;9.19;69.82;102324.72;5080219;28;20277;-49
2023/03/02 00:54:02;;;;;;;39.40;17.03;;;;;;;8.91;72.35;102322.06;5104392;28;20064;-50
2023/03/02 00:56:28;;;;;;;42.67;18.40;;;;;;;9.13;71.98;102322.66;5117548;28;20295;-49
2023/03/02 00:58:54;;;;;;;41.85;17.10;;;;;;;9.04;74.26;102317.25;5100050;28;20073;-51
2023/03/02 01:01:20;;;;;;;49.28;19.60;;;;;;;9.08;73.93;102322.28;5097282;28;20047;-47
2023/03/02 01:03:50;;;;;;;49.42;19.08;;;;;;;8.96;75.79;102319.78;5078596;28;20066;-47
2023/03/02 01:06:20;;;;;;;44.17;19.30;;;;;;;8.97;76.22;102315.31;5079003;28;20096;-50
2023/03/02 01:08:46;;;;;;;48.45;19.52;;;;;;;8.95;76.54;102319.97;5077077;28;20057;-49
2023/03/02 01:11:17;;;;;;;49.08;19.23;;;;;;;8.88;76.89;102312.56;5077487;28;20056;-52
2023/03/02 01:13:44;;;;;;;49.10;20.88;;;;;;;9.01;76.36;102319.38;5097213;28;20028;-50
2023/03/02 01:16:10;;;;;;;45.97;18.48;;;;;;;8.81;77.19;102313.28;5078820;28;20062;-48
2023/03/02 01:18:37;;;;;;;50.73;20.97;;;;;;;8.73;77.75;102320.19;5100477;28;20056;-47
2023/03/02 01:21:06;;;;;;;49.97;20.67;;;;;;;8.70;78.74;102322.31;5083408;28;20261;-49
2023/03/02 01:23:32;;;;;;;48.90;20.33;;;;;;;8.72;79.21;102325.69;5102383;28;20059;-46
2023/03/02 01:25:58;;;;;;;50.47;20.77;;;;;;;8.84;78.59;102329.00;5097417;28;20028;-46
2023/03/02 01:28:23;;;;;;;53.87;20.70;;;;;;;8.65;80.13;102336.09;5097031;28;20299;-51
2023/03/02 01:30:49;;;;;;;55.38;21.95;;;;;;;8.72;80.47;102342.50;5076759;28;20043;-48
2023/03/02 01:33:15;;;;;;;56.20;21.67;;;;;;;8.73;80.61;102336.19;5099661;28;20044;-50
2023/03/02 01:35:44;;;;;;;54.67;22.47;;;;;;;8.65;81.31;102327.22;5099634;28;20049;-49
2023/03/02 01:38:09;;;;;;;49.67;21.15;;;;;;;8.67;80.79;102328.78;5081626;28;20039;-48
2023/03/02 01:40:35;;;;;;;52.03;22.90;;;;;;;8.71;80.98;102330.16;5101023;28;20084;-51
2023/03/02 01:43:03;;;;;;;52.97;21.97;;;;;;;8.61;81.84;102327.53;5101041;28;20103;-46
2023/03/02 01:46:00;;;;;;;61.55;23.88;;;;;;;8.52;82.33;102319.56;5095997;28;20032;-50
2023/03/02 01:48:51;;;;;;;63.60;24.52;;;;;;;8.46;84.24;102319.13;5078014;28;20048;-53
2023/03/02 01:51:47;;;;;;;56.53;21.83;;;;;;;8.65;83.11;102317.41;5088633;28;20052;-50
2023/03/02 01:54:21;;;;;;;;;;;;;;;8.51;84.95;102309.88;5084783;28;20062;-51
2023/03/02 01:56:54;;;;;;;65.10;24.38;;;;;;;8.49;84.70;102323.34;5086904;28;19988;-49
2023/03/02 01:59:22;;;;;;;75.07;25.63;;;;;;;8.52;84.76;102319.56;5086577;28;20036;-49
2023/03/02 02:02:01;;;;;;;65.07;25.42;;;;;;;8.58;85.72;102305.66;5083873;28;20100;-47
2023/03/02 02:04:29;;;;;;;70.78;26.45;;;;;;;8.55;85.54;102311.28;5082367;28;20039;-50
2023/03/02 02:07:00;;;;;;;67.95;26.23;;;;;;;8.47;87.02;102309.31;5084618;28;20032;-50
2023/03/02 02:09:28;;;;;;;72.25;26.90;;;;;;;8.41;87.71;102302.72;5090393;28;20032;-49
2023/03/02 02:11:55;;;;;;;61.80;26.20;;;;;;;8.49;87.42;102306.50;5086989;28;20044;-50
2023/03/02 02:14:47;;;;;;;74.45;28.30;;;;;;;8.31;88.68;102300.09;5102857;28;20028;-49
2023/03/02 02:17:14;;;;;;;71.20;25.85;;;;;;;8.24;89.84;102298.13;5102076;28;20051;-47
2023/03/02 02:20:07;;;;;;;59.20;25.58;;;;;;;8.34;90.00;102304.31;5103561;28;20036;-54
2023/03/02 02:22:45;;;;;;;72.32;27.48;;;;;;;8.32;89.71;102299.09;5100993;28;20036;-49
2023/03/02 02:25:46;;;;;;;68.78;27.50;;;;;;;8.38;89.42;102294.16;5103904;28;20020;-48
2023/03/02 02:28:23;;;;;;;78.20;27.33;;;;;;;8.24;90.33;102296.31;5033112;28;20090;-49
2023/03/02 02:30:55;;;;;;;78.32;27.17;;;;;;;8.02;91.84;102289.47;5100988;28;20052;-51
2023/03/02 02:33:24;;;;;;;71.47;26.67;;;;;;;8.18;92.31;102281.75;5083859;28;20041;-49
2023/03/02 02:35:53;;;;;;;75.07;28.48;;;;;;;8.25;92.26;102283.81;5105848;28;20056;-51
2023/03/02 02:38:20;;;;;;;77.45;28.35;;;;;;;8.33;91.25;102292.78;5102014;28;20036;-50
2023/03/02 02:40:55;;;;;;;70.88;27.30;;;;;;;8.41;90.91;102289.41;5086315;28;20032;-47
2023/03/02 02:43:26;;;;;;;;;;;;;;;8.20;92.35;102286.09;5084134;28;20025;-50
2023/03/02 02:45:55;;;;;;;69.57;25.67;;;;;;;8.23;92.99;102280.47;5102495;28;19919;-49
2023/03/02 02:48:23;;;;;;;74.10;26.88;;;;;;;8.20;92.57;102283.44;5082402;28;20051;-51
2023/03/02 02:50:58;;;;;;;65.47;24.25;;;;;;;8.47;90.31;102286.16;5101866;28;20032;-48
2023/03/02 02:53:27;;;;;;;74.03;27.15;;;;;;;8.49;91.69;102283.34;5084086;28;20032;-52
2023/03/02 02:55:56;;;;;;;70.88;25.45;;;;;;;8.43;90.96;102273.28;5079530;28;20095;-48
2023/03/02 02:58:26;;;;;;;70.43;25.63;;;;;;;8.38;91.40;102276.38;5084297;28;20447;-47
2023/03/02 03:00:53;;;;;;;75.93;28.00;;;;;;;8.39;91.26;102271.84;5082313;28;20063;-50
2023/03/02 03:03:32;;;;;;;71.00;26.70;;;;;;;8.38;90.97;102276.38;5087202;28;20032;-51
2023/03/02 03:06:04;;;;;;;69.78;25.95;;;;;;;8.36;91.76;102273.00;5119522;28;20025;-47
2023/03/02 03:08:49;;;;;;;72.13;27.33;;;;;;;8.32;91.25;102275.09;5083327;28;20036;-51
2023/03/02 03:11:25;;;;;;;73.85;27.65;;;;;;;8.10;92.93;102276.31;5084771;28;20040;-48
2023/03/02 03:14:07;;;;;;;74.28;26.70;;;;;;;8.01;94.12;102277.16;5084791;28;20028;-50
2023/03/02 03:16:36;;;;;;;73.35;26.75;;;;;;;8.03;94.45;102276.03;5083981;28;20032;-50
2023/03/02 03:19:31;;;;;;;75.72;27.88;;;;;;;8.09;93.62;102276.44;5084768;28;20039;-50
2023/03/02 03:22:00;;;;;;;72.05;26.40;;;;;;;8.07;94.04;102265.09;5078291;28;20036;-50
2023/03/02 03:24:31;;;;;;;75.25;27.60;;;;;;;7.98;93.97;102261.44;5087862;28;20048;-49
2023/03/02 03:26:58;;;;;;;75.50;26.83;;;;;;;7.99;94.35;102263.13;5087053;28;20032;-46
2023/03/02 03:29:27;;;;;;;75.53;28.08;;;;;;;7.90;95.17;102251.50;5083448;28;20036;-52
2023/03/02 03:31:58;;;;;;;74.50;27.08;;;;;;;7.95;94.98;102261.75;5100555;28;20038;-47
2023/03/02 03:34:25;;;;;;;78.38;27.00;;;;;;;7.82;95.34;102252.22;5116273;28;20044;-48
2023/03/02 03:36:51;;;;;;;74.38;26.17;;;;;;;7.93;95.39;102258.38;5099606;28;20048;-49
2023/03/02 03:39:18;;;;;;;70.40;25.25;;;;;;;7.79;95.79;102251.69;5100579;28;20032;-48
2023/03/02 03:41:46;;;;;;;68.45;25.00;;;;;;;7.67;97.35;102248.31;5085396;28;20040;-50
2023/03/02 03:44:12;;;;;;;81.53;28.30;;;;;;;7.69;97.53;102251.69;5083683;28;20059;-47
2023/03/02 03:46:41;;;;;;;71.55;27.48;;;;;;;7.60;97.46;102264.00;5080435;28;20050;-45
2023/03/02 03:49:06;;;;;;;82.00;28.00;;;;;;;7.51;99.19;102263.03;5101098;28;20032;-49
2023/03/02 03:51:34;;;;;;;;;;;;;;;7.59;98.66;102265.81;5084745;28;20063;-50
2023/03/02 03:54:01;;;;;;;79.07;27.00;;;;;;;7.77;96.70;102261.63;5100473;28;19972;-47
2023/03/02 03:56:46;;;;;;;73.70;26.60;;;;;;;7.81;96.38;102271.84;5115226;28;20027;-50
2023/03/02 03:59:16;;;;;;;75.20;27.20;;;;;;;7.67;97.17;102270.44;5084345;28;20028;-49
2023/03/02 04:01:55;;;;;;;80.75;26.92;;;;;;;7.55;98.46;102269.75;5081851;28;20039;-49
2023/03/02 04:04:26;;;;;;;52.70;21.58;;;;;;;7.73;97.51;102271.72;5082909;28;20028;-47
2023/03/02 04:06:52;;;;;;;79.70;26.92;;;;;;;7.63;98.06;102262.91;5100752;28;20055;-51
2023/03/02 04:09:19;;;;;;;;;;;;;;;7.55;98.76;102271.59;5118998;28;20021;-48
2023/03/02 04:11:47;;;;;;;72.97;25.92;;;;;;;7.68;97.21;102271.31;5081026;28;19931;-50
2023/03/02 04:14:14;;;;;;;74.43;26.98;;;;;;;7.66;97.03;102270.59;5082741;28;20032;-50
2023/03/02 04:16:40;;;;;;;65.57;24.40;;;;;;;7.64;97.41;102272.56;5083961;28;20028;-48
2023/03/02 04:19:09;;;;;;;70.22;26.88;;;;;;;7.55;97.71;102272.41;5102413;28;20087;-49
2023/03/02 04:21:41;;;;;;;75.55;26.33;;;;;;;7.53;98.21;102286.88;5083108;28;20035;-46
2023/03/02 04:24:07;;;;;;;76.57;26.55;;;;;;;7.58;97.70;102281.94;5100327;28;20103;-51
2023/03/02 04:26:34;;;;;;;70.63;26.90;;;;;;;7.38;99.40;102281.09;5086836;28;20037;-52
2023/03/02 04:29:00;;;;;;;70.40;24.50;;;;;;;7.39;99.18;102283.63;5080934;28;20020;-49
2023/03/02 04:31:26;;;;;;;77.93;26.63;;;;;;;7.52;98.87;102282.53;5085188;28;20035;-51
2023/03/02 04:33:52;;;;;;;70.22;26.38;;;;;;;7.49;98.56;102280.97;5083442;28;20119;-50
2023/03/02 04:36:18;;;;;;;74.35;25.85;;;;;;;7.55;98.10;102284.91;5100118;28;20064;-48
2023/03/02 04:38:46;;;;;;;62.45;22.80;;;;;;;7.31;98.74;102280.81;5081294;28;20032;-50
2023/03/02 04:41:12;;;;;;;57.60;21.23;;;;;;;7.43;98.36;102278.88;5097966;28;20028;-46
2023/03/02 04:43:37;;;;;;;69.33;26.17;;;;;;;7.62;96.83;102278.03;5101003;28;20039;-49
2023/03/02 04:46:03;;;;;;;76.57;26.83;;;;;;;7.67;96.82;102281.09;5099859;28;20031;-48
2023/03/02 04:48:28;;;;;;;54.50;20.50;;;;;;;7.61;97.42;102279.00;5103053;28;20027;-52
2023/03/02 04:50:54;;;;;;;71.97;26.85;;;;;;;7.59;96.83;102279.13;5093206;28;20053;-48
2023/03/02 04:53:20;;;;;;;73.50;25.50;;;;;;;7.80;nan;102270.16;5092046;28;20032;-48
2023/03/02 04:55:46;;;;;;;73.32;24.90;;;;;;;7.69;95.38;102267.66;5080258;28;20033;-50
2023/03/02 04:58:12;;;;;;;74.00;26.50;;;;;;;7.61;96.15;102265.69;5100026;28;20036;-48
2023/03/02 05:00:38;;;;;;;70.32;24.70;;;;;;;7.53;97.24;102258.41;5099886;28;20043;-49
2023/03/02 05:03:04;;;;;;;64.50;24.40;;;;;;;7.55;97.14;102255.63;5096594;28;20084;-51
2023/03/02 05:05:31;;;;;;;64.13;23.73;;;;;;;7.62;96.19;102264.72;5098812;28;20029;-51
2023/03/02 05:07:59;;;;;;;53.88;19.50;;;;;;;7.52;96.98;102266.56;5102396;28;20087;-51
2023/03/02 05:10:27;;;;;;;74.38;27.50;;;;;;;7.47;98.23;102261.63;5103890;28;20036;-51
2023/03/02 05:13:01;;;;;;;71.25;24.90;;;;;;;7.50;97.20;102269.34;5094548;28;20036;-49
2023/03/02 05:15:32;;;;;;;81.93;26.52;;;;;;;7.47;97.50;102266.97;5093537;28;20044;-52
2023/03/02 05:17:59;;;;;;;72.90;25.98;;;;;;;7.45;98.29;102263.59;5099993;28;20051;-50
2023/03/02 05:20:26;;;;;;;68.38;25.67;;;;;;;7.50;97.73;102264.00;5099330;28;20039;-48
2023/03/02 05:22:56;;;;;;;72.65;25.13;;;;;;;7.44;97.28;102267.25;5097128;28;20036;-50
2023/03/02 05:25:23;;;;;;;63.50;24.33;;;;;;;7.57;96.42;102273.13;5099173;28;20088;-46
2023/03/02 05:27:49;;;;;;;54.60;18.88;;;;;;;7.50;96.85;102272.00;5093855;28;20052;-52
2023/03/02 05:30:14;;;;;;;61.85;20.50;;;;;;;7.41;97.41;102262.19;5097300;28;20103;-48
2023/03/02 05:32:40;;;;;;;66.72;24.05;;;;;;;7.37;97.40;102266.09;5100555;28;20058;-47
2023/03/02 05:35:06;;;;;;;60.43;20.53;;;;;;;7.49;96.43;102265.00;5080170;28;20036;-49
2023/03/02 05:37:32;;;;;;;73.25;24.55;;;;;;;7.47;96.21;102258.97;5102188;28;20039;-51
2023/03/02 05:39:57;;;;;;;77.53;25.98;;;;;;;7.40;95.60;102257.84;5101213;28;20114;-50
2023/03/02 05:42:23;;;;;;;74.35;25.48;;;;;;;7.42;94.70;102261.22;5094316;28;20032;-51
2023/03/02 05:44:49;;;;;;;68.07;26.83;;;;;;;7.54;nan;102248.59;5097512;28;20036;-48
2023/03/02 05:47:14;;;;;;;76.23;23.83;;;;;;;7.49;95.10;102254.34;5099781;28;20035;-49
2023/03/02 05:49:40;;;;;;;73.20;26.20;;;;;;;7.55;94.93;102256.44;5098047;28;20277;-49
2023/03/02 05:52:05;;;;;;;70.27;24.57;;;;;;;7.39;95.48;102258.84;5097062;28;20056;-49
2023/03/02 05:54:31;;;;;;;75.70;26.33;;;;;;;7.69;93.20;102257.84;5099694;28;20032;-50
2023/03/02 05:56:57;;;;;;;76.15;24.65;;;;;;;7.47;94.21;102248.31;5094259;28;20047;-48
2023/03/02 05:59:23;;;;;;;70.88;25.45;;;;;;;7.47;94.57;102253.66;5101955;28;20039;-50
2023/03/02 06:01:49;;;;;;;64.70;23.45;;;;;;;7.52;94.03;102262.03;5100626;28;20029;-52
2023/03/02 06:04:14;;;;;;;68.57;22.58;;;;;;;7.79;92.13;102257.81;5102042;28;20063;-50
2023/03/02 06:06:40;;;;;;;74.43;25.63;;;;;;;7.80;91.03;102259.50;5096664;28;20044;-50
2023/03/02 06:09:06;;;;;;;70.90;25.10;;;;;;;7.73;90.96;102266.38;5094943;28;20035;-51
2023/03/02 06:11:31;;;;;;;52.33;19.63;;;;;;;7.67;91.83;102262.47;5096331;28;20037;-48
2023/03/02 06:13:57;;;;;;;72.77;25.63;;;;;;;7.57;92.29;102274.94;5097484;28;20036;-49
2023/03/02 06:16:22;;;;;;;47.93;19.80;;;;;;;7.58;91.79;102272.13;5097251;28;20059;-50
2023/03/02 06:18:48;;;;;;;55.23;19.57;;;;;;;7.64;91.31;102273.41;5097270;28;20032;-52
2023/03/02 06:21:14;;;;;;;82.43;25.23;;;;;;;7.66;91.31;102279.41;5096937;28;20261;-53
2023/03/02 06:23:39;;;;;;;69.07;24.63;;;;;;;7.73;90.80;102279.72;5100405;28;20103;-49
2023/03/02 06:26:09;;;;;;;72.63;23.03;;;;;;;7.70;91.02;102274.66;5097492;28;20058;-48
2023/03/02 06:28:35;;;;;;;65.82;23.05;;;;;;;7.45;91.59;102276.91;5097580;28;20087;-49
2023/03/02 06:31:01;;;;;;;61.63;25.10;;;;;;;7.63;90.96;102278.88;5087803;28;20131;-47
2023/03/02 06:33:27;;;;;;;66.15;23.52;;;;;;;7.52;91.59;102282.53;5090434;28;20062;-50
2023/03/02 06:35:52;;;;;;;72.90;22.97;;;;;;;7.62;91.59;102274.53;5094267;28;20060;-51
2023/03/02 06:38:18;;;;;;;55.97;19.63;;;;;;;7.55;91.49;102283.06;5094549;28;20032;-47
2023/03/02 06:40:43;;;;;;;72.07;26.63;;;;;;;7.31;92.32;102283.47;5095518;28;20051;-50
2023/03/02 06:43:09;;;;;;;68.20;23.75;;;;;;;7.60;91.90;102280.81;5095587;28;20036;-50
2023/03/02 06:45:34;;;;;;;66.67;23.43;;;;;;;7.69;90.83;102284.47;5096922;28;20043;-48
2023/03/02 06:48:00;;;;;;;71.30;25.57;;;;;;;7.68;91.32;102288.09;5098677;28;20301;-49
2023/03/02 06:50:27;;;;;;;69.93;24.05;;;;;;;7.60;91.30;102288.81;5098111;28;20033;-51
2023/03/02 06:52:52;;;;;;;70.35;24.23;;;;;;;7.62;91.84;102288.69;5097267;28;20031;-49
2023/03/02 06:55:18;;;;;;;81.53;24.50;;;;;;;7.78;90.32;102290.78;5101945;28;20023;-49
2023/03/02 06:57:43;;;;;;;58.83;22.30;;;;;;;7.84;89.96;102298.22;5100301;28;20028;-48
2023/03/02 07:00:16;;;;;;;56.70;19.35;;;;;;;7.73;90.69;102291.22;5098846;28;20092;-49
2023/03/02 07:02:43;;;;;;;66.53;22.83;;;;;;;7.77;90.60;102291.75;5097374;28;20036;-52
2023/03/02 07:05:10;;;;;;;60.65;21.13;;;;;;;7.60;91.01;102293.31;5106768;28;20062;-49
2023/03/02 07:07:36;;;;;;;72.45;24.00;;;;;;;7.79;90.35;102289.78;5106837;28;20032;-48
2023/03/02 07:10:02;;;;;;;59.45;21.48;;;;;;;8.01;89.41;102293.13;5098248;28;20044;-47
2023/03/02 07:12:28;;;;;;;68.90;22.95;;;;;;;7.86;89.70;102290.94;5100756;28;20040;-52
2023/03/02 07:14:53;;;;;;;71.90;24.27;;;;;;;7.57;90.96;102290.94;5096151;28;20074;-49
2023/03/02 07:17:19;;;;;;;73.20;25.48;;;;;;;7.94;90.05;102289.38;5095396;28;20029;-52
2023/03/02 07:19:44;;;;;;;62.03;21.93;;;;;;;7.99;89.30;102289.78;5100066;28;20035;-49
2023/03/02 07:22:10;;;;;;;60.10;22.10;;;;;;;7.95;88.93;102283.06;5096675;28;20025;-51
2023/03/02 07:24:35;;;;;;;56.03;20.93;;;;;;;8.06;88.79;102282.06;5100789;28;20032;-52
2023/03/02 07:27:00;;;;;;;66.47;22.87;;;;;;;8.23;87.84;102281.31;5098166;28;20028;-48
2023/03/02 07:29:26;;;;;;;46.92;17.15;;;;;;;8.21;87.60;102279.78;5099964;28;20036;-52
2023/03/02 07:31:55;;;;;;;65.23;22.93;;;;;;;8.09;88.19;102279.97;5095293;28;20040;-54
2023/03/02 07:34:23;;;;;;;65.03;22.23;;;;;;;8.18;87.66;102279.09;5105109;28;20039;-49
2023/03/02 07:36:49;;;;;;;75.63;22.88;;;;;;;7.95;88.61;102283.88;5097286;28;20059;-51
2023/03/02 07:39:14;;;;;;;52.28;19.33;;;;;;;8.30;86.85;102292.22;5101474;28;20037;-52
2023/03/02 07:41:40;;;;;;;62.73;21.20;;;;;;;8.18;87.15;102288.88;5101799;28;20087;-54
2023/03/02 07:44:05;;;;;;;63.87;20.87;;;;;;;7.79;89.57;102283.63;5103578;28;20028;-52
2023/03/02 07:46:31;;;;;;;62.87;22.77;;;;;;;8.29;88.41;102290.53;5098616;28;20031;-54
2023/03/02 07:48:57;;;;;;;62.50;22.87;;;;;;;8.61;85.31;102300.03;5100442;28;20269;-54
2023/03/02 07:51:23;;;;;;;67.03;23.05;;;;;;;8.36;85.65;102302.31;5098868;28;20024;-50
2023/03/02 07:53:49;;;;;;;42.70;17.33;;;;;;;8.80;84.96;102300.94;5102803;28;20046;-49
2023/03/02 07:56:14;;;;;;;57.20;20.97;;;;;;;8.70;84.63;102309.81;5100440;28;20037;-50
2023/03/02 07:58:40;;;;;;;59.40;20.48;;;;;;;8.71;83.95;102300.81;5098047;28;20032;-50
2023/03/02 08:01:06;;;;;;;55.63;18.93;;;;;;;8.79;83.04;102302.75;5097871;28;20074;-51
2023/03/02 08:03:31;;;;;;;42.88;17.70;;;;;;;8.88;82.88;102301.03;5103274;28;20025;-51
2023/03/02 08:05:57;;;;;;;50.33;19.57;;;;;;;8.88;83.01;102306.38;5099537;28;20048;-51
2023/03/02 08:08:23;;;;;;;52.00;19.53;;;;;;;9.13;81.36;102302.16;5096757;28;20040;-49
2023/03/02 08:10:48;;;;;;;55.77;19.30;;;;;;;9.23;81.11;102310.13;5100542;28;20047;-50
2023/03/02 08:13:13;;;;;;;57.58;19.50;;;;;;;9.38;80.48;102297.09;5079316;28;20033;-49
2023/03/02 08:15:39;;;;;;;60.53;18.87;;;;;;;9.39;79.67;102292.56;5103416;28;20039;-52
2023/03/02 08:18:04;;;;;;;52.80;19.40;;;;;;;9.56;79.62;102305.09;5100686;28;20407;-53
2023/03/02 08:20:30;;;;;;;54.60;18.87;;;;;;;9.54;78.89;102295.56;5098027;28;20055;-50
2023/03/02 08:22:56;;;;;;;54.07;20.40;;;;;;;9.85;78.45;102301.34;5101621;28;20303;-48
2023/03/02 08:25:22;;;;;;;43.60;17.98;;;;;;;9.88;77.35;102305.53;5101226;28;20028;-49
2023/03/02 08:27:47;;;;;;;49.57;17.53;;;;;;;9.90;76.83;102307.03;5099895;28;20039;-50
2023/03/02 08:30:13;;;;;;;51.30;18.27;;;;;;;10.03;76.13;102305.81;5096258;28;20040;-46
2023/03/02 08:32:39;;;;;;;49.10;18.33;;;;;;;9.63;78.01;102310.69;5103277;28;20036;-52
2023/03/02 08:35:05;;;;;;;46.43;16.40;;;;;;;9.72;76.85;102314.25;5097158;28;20127;-52
2023/03/02 08:37:30;;;;;;;46.53;17.60;;;;;;;10.32;75.30;102315.38;5099438;28;20047;-48
2023/03/02 08:39:56;;;;;;;49.77;17.73;;;;;;;10.57;73.83;102308.38;5099212;28;20036;-51
2023/03/02 08:42:21;;;;;;;44.20;16.07;;;;;;;10.93;73.38;102304.69;5096542;28;20017;-49
2023/03/02 08:44:47;;;;;;;39.17;15.38;;;;;;;11.36;71.59;102307.28;5096502;28;20037;-49
2023/03/02 08:47:13;;;;;;;43.27;16.37;;;;;;;11.75;69.80;102308.50;5098062;28;20040;-50
2023/03/02 08:49:39;;;;;;;47.63;17.17;;;;;;;12.00;68.32;102309.34;5098729;28;20043;-52
2023/03/02 08:52:04;;;;;;;40.37;16.00;;;;;;;12.32;66.83;102307.66;5096284;28;20045;-52
2023/03/02 08:54:33;;;;;;;33.03;13.25;;;;;;;12.48;66.58;102311.31;5077746;28;20028;-51
2023/03/02 08:56:59;;;;;;;41.53;15.60;;;;;;;13.33;63.69;102309.75;5096663;28;20044;-50
2023/03/02 08:59:25;;;;;;;;;;;;;;;13.81;61.82;102318.69;5096372;28;20101;-51
2023/03/02 09:01:51;;;;;;;38.53;15.00;;;;;;;14.11;60.23;102311.53;5091612;28;19920;-47
2023/03/02 09:04:17;;;;;;;35.45;15.25;;;;;;;14.74;58.45;102305.81;5096528;28;20151;-52
2023/03/02 09:06:44;;;;;;;32.72;14.55;;;;;;;15.15;56.92;102312.53;5096332;28;20047;-49
2023/03/02 09:09:10;;;;;;;36.28;14.63;;;;;;;15.54;55.46;102307.75;5103601;28;20036;-50
2023/03/02 09:11:37;;;;;;;42.65;14.25;;;;;;;15.51;55.10;102307.28;5098544;28;20088;-49
2023/03/02 09:14:03;;;;;;;32.47;13.50;;;;;;;16.55;52.56;102313.94;5101235;28;20036;-50
2023/03/02 09:16:29;;;;;;;30.47;13.00;;;;;;;16.83;51.02;102306.75;5099062;28;20054;-49
2023/03/02 09:18:54;;;;;;;33.08;13.45;;;;;;;16.72;50.31;102300.91;5098520;28;20039;-48
2023/03/02 09:21:19;;;;;;;28.60;13.73;;;;;;;17.02;49.35;102314.16;5100984;28;20035;-52
2023/03/02 09:23:45;;;;;;;29.33;12.90;;;;;;;17.33;48.14;102301.97;5098492;28;20027;-49
2023/03/02 09:26:11;;;;;;;30.40;13.33;;;;;;;17.44;47.64;102305.94;5100711;28;20025;-54
2023/03/02 09:28:37;;;;;;;28.55;12.73;;;;;;;18.01;45.83;102304.72;5096380;28;20028;-50
2023/03/02 09:31:05;;;;;;;29.05;13.13;;;;;;;18.48;45.11;102313.63;5100792;28;20061;-50
2023/03/02 09:33:31;;;;;;;27.87;12.67;;;;;;;18.57;44.03;102307.97;5095826;28;20029;-50
2023/03/02 09:35:57;;;;;;;25.65;12.27;;;;;;;19.46;42.87;102315.47;5100166;28;20277;-47
2023/03/02 09:38:23;;;;;;;28.45;12.50;;;;;;;19.62;41.86;102312.22;5098840;28;20028;-54
2023/03/02 09:40:49;;;;;;;26.85;12.57;;;;;;;19.69;41.34;102316.75;5102171;28;20100;-50
2023/03/02 09:43:27;;;;;;;31.70;12.43;;;;;;;20.11;40.83;102324.38;5101850;28;20048;-52
2023/03/02 09:46:14;;;;;;;28.07;13.57;;;;;;;20.32;40.28;102314.97;5096830;28;20047;-49
2023/03/02 09:49:10;;;;;;;28.77;13.40;;;;;;;20.99;39.72;102325.09;5097056;28;20375;-50
2023/03/02 09:52:07;;;;;;;28.73;13.57;;;;;;;20.36;39.71;102332.47;5099310;28;20070;-52
2023/03/02 09:54:36;;;;;;;33.43;12.97;;;;;;;21.27;38.42;102330.97;5095392;28;20266;-50
2023/03/02 09:57:13;;;;;;;28.13;12.30;;;;;;;21.95;36.98;102333.50;5096365;28;20266;-49
2023/03/02 09:59:43;;;;;;;27.65;12.35;;;;;;;21.60;37.63;102341.34;5101056;28;20036;-52
2023/03/02 10:02:18;;;;;;;22.73;11.80;;;;;;;22.05;36.26;102329.13;5099615;28;20043;-50
2023/03/02 10:04:46;;;;;;;26.80;12.33;;;;;;;22.20;36.31;102333.25;5101383;28;20027;-51
2023/03/02 10:07:21;;;;;;;25.07;11.73;;;;;;;21.55;36.22;102333.06;5100720;28;20032;-52
2023/03/02 10:09:46;;;;;;;23.23;12.03;;;;;;;22.24;35.63;102328.16;5099944;28;20048;-53
2023/03/02 10:12:49;;;;;;;23.42;11.80;;;;;;;22.75;34.45;102329.28;5096807;28;20048;-50
2023/03/02 10:15:41;;;;;;;24.97;11.80;;;;;;;22.64;34.85;102327.44;5095666;28;20033;-49
2023/03/02 10:18:18;;;;;;;25.97;12.63;;;;;;;22.84;34.05;102331.66;5095037;28;20052;-52
2023/03/02 10:21:03;;;;;;;26.70;12.10;;;;;;;22.87;34.13;102325.69;5099920;28;20092;-48
2023/03/02 10:23:47;;;;;;;21.37;11.17;;;;;;;23.29;32.95;102333.59;5102891;28;20047;-50
2023/03/02 10:26:16;;;;;;;22.70;11.10;;;;;;;23.80;32.74;102327.38;5080752;28;20052;-52
2023/03/02 10:28:51;;;;;;;28.97;12.87;;;;;;;24.25;32.42;102328.31;5102584;28;20103;-52
2023/03/02 10:31:28;;;;;;;22.67;11.68;;;;;;;24.48;33.03;102316.31;5099579;28;20035;-50
2023/03/02 10:33:54;;;;;;;23.52;11.35;;;;;;;24.82;31.77;102330.97;5096016;28;20044;-51
2023/03/02 10:36:26;;;;;;;22.98;11.55;;;;;;;24.79;32.10;102326.81;5099988;28;20074;-50
2023/03/02 10:38:53;;;;;;;20.60;10.87;;;;;;;25.20;30.85;102316.31;5099077;28;20035;-51
2023/03/02 10:41:29;;;;;;;24.13;10.87;;;;;;;25.07;31.06;102316.75;5100285;28;20040;-54
2023/03/02 10:44:04;;;;;;;26.07;11.93;;;;;;;25.33;30.53;102323.25;5102777;28;20051;-52
2023/03/02 10:46:58;;;;;;;23.65;11.75;;;;;;;25.35;30.12;102314.81;5104127;28;20032;-51
2023/03/02 10:49:29;;;;;;;22.27;10.97;;;;;;;26.15;29.30;102308.56;5096016;28;20036;-49
2023/03/02 10:52:15;;;;;;;18.37;9.10;;;;;;;26.09;30.85;102314.25;5102975;28;20035;-48
2023/03/02 10:54:41;;;;;;;19.20;10.30;;;;;;;26.34;28.63;102306.19;5098972;28;20036;-52
2023/03/02 10:57:25;;;;;;;;;;;;;;;26.23;27.87;102306.41;5099656;28;20028;-53
2023/03/02 10:59:51;;;;;;;20.67;11.13;;;;;;;26.85;27.52;102309.44;5100629;28;19931;-49
2023/03/02 11:02:23;;;;;;;24.10;10.80;;;;;;;27.06;26.74;102304.78;5098107;28;20021;-55
2023/03/02 11:05:20;;;;;;;21.90;11.70;;;;;;;27.39;26.14;102308.13;5103879;28;20096;-53
2023/03/02 11:07:56;;;;;;;19.40;10.60;;;;;;;26.94;26.15;102305.03;5090910;28;20055;-51
2023/03/02 11:10:43;;;;;;;23.77;11.80;;;;;;;27.13;26.21;102299.88;5100959;28;20036;-50
2023/03/02 11:13:19;;;;;;;16.23;8.43;;;;;;;27.20;27.19;102294.09;5078420;28;20044;-52
2023/03/02 11:15:50;;;;;;;20.87;10.40;;;;;;;28.39;25.32;102299.44;5093773;28;20032;-54
2023/03/02 11:18:38;;;;;;;21.63;10.57;;;;;;;28.72;24.51;102299.81;5103624;28;20311;-55
2023/03/02 11:21:29;;;;;;;18.93;9.43;;;;;;;28.91;23.38;102299.19;5096130;28;20039;-51
2023/03/02 11:24:02;;;;;;;18.63;10.30;;;;;;;28.44;24.79;102287.56;5098573;28;20039;-55
2023/03/02 11:26:44;;;;;;;18.07;9.87;;;;;;;28.82;25.97;102287.94;5096917;28;20033;-50
2023/03/02 11:29:20;;;;;;;23.57;9.90;;;;;;;29.31;23.36;102297.22;5097537;28;20043;-50
2023/03/02 11:31:49;;;;;;;20.15;9.18;;;;;;;29.88;24.25;102295.91;5097536;28;20036;-54